Airfield :
LOGIN :

Register | Disclaimer

   EN    FR    IT 

 










Legend :    VFR   Marginal VFR   IFR   Intensive IFR   Very Intensive IFR
Visi :
Ceiling :
>= 8 km
>= 3000ft
5 to 8 km
1000 to 3000 ft
1500m to 5 km
500 to 1000 ft
800 to 1500m
200 to 500 ft
< 800m
< 200 ft
Symbols :   Thunderstorms  Fog  Heavy snow  Heavy precipitations  Wind > 20 kt
SIGMETs :     Misc.  Thunderstorms  Icing  Turbulence  Mountain Waves  Volcanic Ashes







- Airport Elevation : 863 ft
- IATA code : ZAZ


LEZG - Zaragoza Aragon

CURRENT METAR :
  • 261230Z 11013KT 080V140 9999 FEW020 15/08 Q1017

EXPIRED METARs :
  • 261200Z 09011KT 9999 FEW020 15/09 Q1017
  • 261130Z 11011KT 080V150 9999 FEW020 13/09 Q1018
  • 261100Z 10009KT 070V130 9999 FEW016 13/09 Q1018
  • 261030Z 10013KT 070V130 9999 FEW020 12/08 Q1018
  • 261000Z 09009KT 9999 FEW040 11/08 Q1018

TAF TAF LEZG
Valid from the 26 at 12:00 until the 27 at 12:00 UTC


261100Z 2612/2712 10010KT 9999 FEW060 TX15/2615Z TN09/2707Z
PROB30
TEMPO 2612/2618 FEW040TCU
PROB30
TEMPO 2614/2620 10015G25KT
PROB40
TEMPO 2703/2712 5000 RA BKN040
No reported NOTAMs for that airfield.
1 SIGMET reported for the Madrid FIR (LECM) :
 
Severe turbulence
LECM SIGMET 5 VALID 261200/261600 LEVA
LECM MADRID FIR/UIR SEV TURB FCST WI N4230 W01130 - N45 W010 - N4340 W00150 - N4330 W00810 - N42 W00930 FL230/300 MOV N 10KT WKN=



MET'MAP, your aeronautical weather chart ! - Copyright ORBIFLY December 2007 - Disclaimer

ORBIFLY MET'MAP TEAM :

Programming & Development : Alexandra Zaïnal
Concept & Development : Baudouin d'Aumeries
Co-Development & Prog : Marc-Olivier Méhu
Technical & hardware support : Manuel Goepfert

Contact : metmap@orbifly.com




SOURCES & CREDITS :

   NOAA